createdAt,value
2023-04-13T00:01:23.752Z,1.67
2023-04-13T00:03:52.321Z,1.95
2023-04-13T00:06:22.794Z,2.00
2023-04-13T00:08:54.855Z,2.03
2023-04-13T00:11:23.040Z,1.90
2023-04-13T00:13:50.837Z,2.17
2023-04-13T00:16:18.845Z,2.28
2023-04-13T00:18:46.685Z,2.17
2023-04-13T00:21:17.318Z,2.35
2023-04-13T00:23:46.639Z,2.45
2023-04-13T00:26:14.491Z,2.30
2023-04-13T00:28:45.530Z,1.83
2023-04-13T00:31:13.404Z,2.45
2023-04-13T00:33:41.564Z,2.60
2023-04-13T00:36:10.496Z,2.28
2023-04-13T00:38:39.212Z,2.13
2023-04-13T00:41:08.598Z,2.30
2023-04-13T00:43:36.760Z,1.88
2023-04-13T00:46:05.335Z,2.33
2023-04-13T00:48:36.316Z,2.30
2023-04-13T00:51:05.844Z,2.30
2023-04-13T00:53:34.783Z,2.63
2023-04-13T00:56:06.091Z,2.25
2023-04-13T00:58:36.043Z,2.65
2023-04-13T01:01:04.369Z,2.45
2023-04-13T01:03:34.539Z,3.03
2023-04-13T01:06:17.825Z,3.08
2023-04-13T01:08:49.115Z,2.65
2023-04-13T01:11:24.613Z,3.00
2023-04-13T01:14:02.742Z,4.32
2023-04-13T01:16:38.226Z,3.67
2023-04-13T01:19:11.976Z,3.35
2023-04-13T01:21:40.340Z,3.67
2023-04-13T01:24:22.201Z,3.85
2023-04-13T01:26:58.575Z,4.10
2023-04-13T01:29:29.885Z,3.70
2023-04-13T01:32:01.345Z,4.25
2023-04-13T01:34:29.773Z,4.00
2023-04-13T01:36:58.184Z,3.00
2023-04-13T01:39:32.046Z,3.22
2023-04-13T01:42:10.120Z,3.45
2023-04-13T01:44:40.487Z,3.40
2023-04-13T01:47:16.692Z,2.95
2023-04-13T01:50:10.264Z,3.30
2023-04-13T01:52:51.212Z,3.05
2023-04-13T01:55:19.838Z,3.00
2023-04-13T01:57:54.930Z,2.90
2023-04-13T02:00:32.054Z,2.40
2023-04-13T02:03:00.229Z,2.60
2023-04-13T02:05:28.072Z,2.33
2023-04-13T02:07:56.494Z,2.58
2023-04-13T02:10:24.341Z,2.47
2023-04-13T02:12:52.816Z,2.00
2023-04-13T02:15:21.220Z,2.60
2023-04-13T02:17:50.434Z,2.85
2023-04-13T02:20:19.043Z,2.60
2023-04-13T02:22:46.922Z,2.47
2023-04-13T02:25:17.299Z,2.17
2023-04-13T02:27:45.427Z,2.10
2023-04-13T02:30:13.863Z,2.08
2023-04-13T02:32:42.706Z,2.17
2023-04-13T02:35:12.087Z,2.47
2023-04-13T02:37:40.996Z,2.33
2023-04-13T02:40:13.224Z,2.30
2023-04-13T02:42:41.665Z,2.20
2023-04-13T02:45:12.120Z,2.00
2023-04-13T02:47:40.277Z,2.25
2023-04-13T02:50:09.599Z,2.10
2023-04-13T02:52:45.206Z,1.92
2023-04-13T02:55:13.435Z,2.22
2023-04-13T02:57:51.468Z,1.50
2023-04-13T03:00:20.496Z,1.88
2023-04-13T03:02:55.709Z,1.48
2023-04-13T03:05:26.443Z,1.92
2023-04-13T03:07:56.983Z,1.80
2023-04-13T03:10:25.856Z,1.55
2023-04-13T03:12:55.513Z,2.03
2023-04-13T03:15:23.684Z,1.83
2023-04-13T03:17:51.603Z,1.50
2023-04-13T03:20:23.900Z,1.55
2023-04-13T03:23:01.760Z,1.50
2023-04-13T03:25:34.104Z,1.65
2023-04-13T03:28:03.621Z,1.45
2023-04-13T03:30:37.490Z,1.25
2023-04-13T03:33:05.766Z,1.63
2023-04-13T03:35:37.240Z,1.80
2023-04-13T03:38:09.417Z,2.00
2023-04-13T03:40:39.775Z,1.70
2023-04-13T03:43:07.536Z,1.60
2023-04-13T03:45:39.672Z,1.48
2023-04-13T03:48:11.125Z,1.65
2023-04-13T03:50:39.256Z,1.77
2023-04-13T03:53:10.405Z,1.83
2023-04-13T03:55:38.722Z,1.92
2023-04-13T03:58:08.534Z,1.73
2023-04-13T04:00:36.958Z,1.88
2023-04-13T04:03:27.692Z,2.58
2023-04-13T04:05:58.867Z,1.90
2023-04-13T04:08:30.471Z,1.95
2023-04-13T04:13:31.489Z,1.73
2023-04-13T04:16:03.659Z,2.08
2023-04-13T04:18:34.146Z,1.60
2023-04-13T04:21:03.859Z,2.03
2023-04-13T04:23:34.702Z,1.85
2023-04-13T04:28:42.438Z,1.40
2023-04-13T04:31:15.056Z,1.80
2023-04-13T04:33:47.075Z,1.77
2023-04-13T04:36:17.023Z,2.08
2023-04-13T04:38:58.144Z,1.58
2023-04-13T04:41:27.167Z,2.08
2023-04-13T04:44:02.752Z,2.03
2023-04-13T04:46:38.491Z,1.80
2023-04-13T04:49:10.223Z,1.92
2023-04-13T04:51:39.240Z,2.22
2023-04-13T04:54:09.291Z,1.58
2023-04-13T04:56:37.606Z,1.90
2023-04-13T04:59:06.689Z,1.90
2023-04-13T05:01:47.172Z,1.60
2023-04-13T05:04:15.174Z,1.80
2023-04-13T05:06:44.790Z,1.80
2023-04-13T05:09:19.765Z,1.90
2023-04-13T05:11:51.925Z,2.20
2023-04-13T05:14:21.514Z,2.20
2023-04-13T05:16:49.807Z,2.53
2023-04-13T05:19:25.153Z,2.45
2023-04-13T05:21:57.197Z,2.75
2023-04-13T05:24:27.202Z,2.60
2023-04-13T05:26:59.753Z,3.22
2023-04-13T05:29:27.956Z,3.40
2023-04-13T05:31:55.790Z,3.70
2023-04-13T05:34:24.204Z,3.72
2023-04-13T05:37:05.342Z,3.30
2023-04-13T05:39:34.811Z,3.90
2023-04-13T05:42:03.085Z,4.20
2023-04-13T05:44:34.469Z,3.53
2023-04-13T05:47:02.800Z,3.90
2023-04-13T05:49:33.602Z,3.72
2023-04-13T05:52:01.812Z,3.13
2023-04-13T05:54:41.643Z,3.50
2023-04-13T05:57:09.497Z,4.20
2023-04-13T05:59:42.033Z,3.75
2023-04-13T06:02:10.794Z,3.53
2023-04-13T06:04:38.967Z,3.42
2023-04-13T06:07:07.238Z,3.35
2023-04-13T06:09:35.007Z,3.40
2023-04-13T06:12:04.591Z,3.47
2023-04-13T06:14:32.556Z,3.15
2023-04-13T06:17:00.678Z,3.40
2023-04-13T06:19:29.243Z,3.33
2023-04-13T06:21:58.525Z,3.33
2023-04-13T06:24:27.270Z,2.70
2023-04-13T06:26:57.027Z,3.60
2023-04-13T06:29:26.630Z,3.00
2023-04-13T06:32:02.635Z,3.88
2023-04-13T06:34:31.311Z,3.05
2023-04-13T06:36:59.390Z,3.10
2023-04-13T06:39:29.052Z,3.03
2023-04-13T06:42:01.422Z,2.75
2023-04-13T06:45:03.837Z,2.83
2023-04-13T06:47:41.878Z,2.00
2023-04-13T06:50:15.531Z,2.10
2023-04-13T06:52:45.192Z,2.75
2023-04-13T06:55:13.469Z,1.75
2023-04-13T06:57:42.592Z,2.15
2023-04-13T07:00:26.485Z,2.88
2023-04-13T07:02:56.849Z,2.22
2023-04-13T07:05:24.803Z,2.58
2023-04-13T07:07:55.274Z,3.17
2023-04-13T07:10:24.540Z,3.03
2023-04-13T07:12:54.421Z,3.80
2023-04-13T07:15:26.849Z,4.18
2023-04-13T07:17:55.999Z,4.00
2023-04-13T07:20:24.077Z,4.43
2023-04-13T07:22:52.260Z,3.95
2023-04-13T07:25:21.807Z,3.60
2023-04-13T07:27:50.221Z,2.85
2023-04-13T07:30:18.463Z,3.47
2023-04-13T07:32:49.632Z,4.20
2023-04-13T07:35:17.818Z,3.42
2023-04-13T07:37:50.734Z,3.60
2023-04-13T07:40:20.911Z,3.40
2023-04-13T07:42:51.995Z,3.15
2023-04-13T07:45:21.200Z,3.78
2023-04-13T07:47:52.708Z,3.38
2023-04-13T07:50:20.647Z,2.85
2023-04-13T07:52:48.695Z,4.43
2023-04-13T07:55:21.100Z,3.78
2023-04-13T07:57:50.100Z,3.17
2023-04-13T08:00:20.657Z,3.53
2023-04-13T08:02:55.689Z,3.33
2023-04-13T08:05:25.275Z,3.22
2023-04-13T08:07:53.668Z,2.97
2023-04-13T08:10:21.522Z,2.22
2023-04-13T08:12:49.580Z,2.33
2023-04-13T08:15:19.966Z,3.10
2023-04-13T08:17:48.150Z,2.47
2023-04-13T08:20:21.265Z,2.10
2023-04-13T08:25:21.889Z,2.38
2023-04-13T08:27:49.685Z,2.15
2023-04-13T08:30:17.845Z,1.52
2023-04-13T08:32:54.858Z,1.50
2023-04-13T08:35:25.894Z,1.27
2023-04-13T08:37:53.987Z,1.83
2023-04-13T08:40:22.773Z,1.23
2023-04-13T08:42:55.613Z,1.40
2023-04-13T08:45:24.064Z,2.13
2023-04-13T08:47:52.991Z,2.17
2023-04-13T08:50:26.951Z,2.22
2023-04-13T08:52:56.567Z,1.90
2023-04-13T08:55:26.580Z,1.70
2023-04-13T08:57:59.496Z,1.50
2023-04-13T09:00:28.387Z,1.00
2023-04-13T09:03:07.051Z,1.35
2023-04-13T09:05:43.497Z,1.52
2023-04-13T09:08:13.747Z,1.63
2023-04-13T09:10:45.133Z,1.67
2023-04-13T09:13:13.341Z,1.42
2023-04-13T09:15:43.104Z,1.25
2023-04-13T09:18:26.063Z,0.88
2023-04-13T09:21:02.290Z,1.35
2023-04-13T09:23:30.292Z,1.20
2023-04-13T09:26:09.049Z,1.00
2023-04-13T09:28:47.747Z,1.35
2023-04-13T09:31:16.394Z,1.00
2023-04-13T09:33:48.751Z,1.70
2023-04-13T09:36:19.705Z,1.40
2023-04-13T09:38:52.543Z,1.52
2023-04-13T09:41:29.840Z,1.50
2023-04-13T09:43:58.575Z,1.65
2023-04-13T09:46:26.413Z,2.00
2023-04-13T09:49:02.847Z,0.98
2023-04-13T09:51:39.516Z,0.50
2023-04-13T09:54:08.136Z,0.60
2023-04-13T09:56:52.540Z,0.95
2023-04-13T09:59:20.436Z,0.70
2023-04-13T10:01:49.286Z,0.63
2023-04-13T10:04:17.441Z,0.22
2023-04-13T10:06:46.941Z,0.40
2023-04-13T10:09:15.454Z,0.50
2023-04-13T10:11:46.685Z,0.40
2023-04-13T10:14:17.818Z,0.32
2023-04-13T10:17:08.301Z,0.28
2023-04-13T10:19:43.259Z,0.40
2023-04-13T10:22:13.032Z,0.30
2023-04-13T10:24:41.591Z,0.80
2023-04-13T10:27:15.006Z,0.55
2023-04-13T10:29:44.936Z,0.45
2023-04-13T10:32:22.645Z,0.55
2023-04-13T10:34:52.874Z,0.43
2023-04-13T10:37:24.113Z,0.55
2023-04-13T10:40:05.535Z,0.80
2023-04-13T10:42:51.714Z,0.60
2023-04-13T10:45:24.032Z,0.70
2023-04-13T10:47:53.416Z,1.05
2023-04-13T10:50:22.988Z,0.90
2023-04-13T10:53:00.107Z,0.70
2023-04-13T10:55:28.955Z,0.60
2023-04-13T10:57:57.675Z,0.70
2023-04-13T11:00:38.367Z,0.70
2023-04-13T11:03:15.323Z,0.60
2023-04-13T11:05:44.873Z,1.30
2023-04-13T11:08:20.535Z,0.90
2023-04-13T11:10:52.630Z,1.70
2023-04-13T11:13:20.818Z,0.70
2023-04-13T11:15:50.591Z,1.38
2023-04-13T11:18:27.157Z,1.10
2023-04-13T11:20:55.910Z,0.93
2023-04-13T11:23:25.581Z,0.93
2023-04-13T11:25:55.147Z,1.20
2023-04-13T11:28:23.817Z,1.30
2023-04-13T11:30:56.700Z,1.42
2023-04-13T11:33:25.841Z,1.50
2023-04-13T11:35:55.490Z,1.73
2023-04-13T11:38:23.661Z,2.20
2023-04-13T11:41:07.937Z,2.10
2023-04-13T11:43:41.926Z,1.75
2023-04-13T11:46:12.764Z,2.03
2023-04-13T11:48:41.390Z,2.40
2023-04-13T11:51:11.102Z,3.00
2023-04-13T11:53:39.669Z,2.75
2023-04-13T11:56:09.631Z,4.25
2023-04-13T11:58:39.452Z,2.38
2023-04-13T12:03:56.946Z,2.65
2023-04-13T12:06:29.053Z,2.92
2023-04-13T12:09:09.081Z,2.70
2023-04-13T12:11:43.942Z,3.03
2023-04-13T12:14:49.268Z,2.00
2023-04-13T12:22:15.232Z,2.40
2023-04-13T12:24:43.195Z,1.83
2023-04-13T12:29:43.432Z,2.22
2023-04-13T12:32:14.285Z,2.28
2023-04-13T12:34:43.017Z,2.45
2023-04-13T12:37:11.843Z,2.20
2023-04-13T12:39:39.847Z,2.85
2023-04-13T12:42:09.102Z,2.47
2023-04-13T12:44:38.763Z,1.90
2023-04-13T12:47:06.960Z,2.47
2023-04-13T12:49:34.955Z,1.83
2023-04-13T12:52:02.754Z,2.13
2023-04-13T12:54:30.943Z,2.63
2023-04-13T12:56:59.727Z,2.08
2023-04-13T12:59:27.644Z,2.03
2023-04-13T13:01:58.705Z,2.08
2023-04-13T13:04:30.061Z,2.38
2023-04-13T13:06:58.107Z,2.17
2023-04-13T13:09:25.915Z,2.20
2023-04-13T13:11:53.861Z,2.97
2023-04-13T13:14:21.846Z,2.72
2023-04-13T13:16:50.568Z,2.28
2023-04-13T13:19:19.873Z,2.03
2023-04-13T13:21:47.807Z,3.05
2023-04-13T13:24:15.876Z,2.40
2023-04-13T13:27:10.151Z,2.28
2023-04-13T13:29:33.454Z,2.78
2023-04-13T13:32:01.386Z,2.08
2023-04-13T13:34:30.703Z,2.35
2023-04-13T13:36:59.054Z,2.35
2023-04-13T13:39:27.345Z,2.33
2023-04-13T13:41:55.255Z,2.17
2023-04-13T13:44:23.315Z,2.25
2023-04-13T13:46:51.130Z,2.30
2023-04-13T13:49:21.448Z,2.42
2023-04-13T13:52:09.570Z,1.88
2023-04-13T13:54:45.935Z,2.15
2023-04-13T13:57:13.845Z,2.00
2023-04-13T13:59:41.794Z,2.08
2023-04-13T14:02:10.024Z,3.15
2023-04-13T14:04:38.453Z,1.90
2023-04-13T14:07:06.599Z,2.20
2023-04-13T14:09:36.116Z,2.13
2023-04-13T14:12:05.246Z,1.55
2023-04-13T14:14:33.261Z,1.77
2023-04-13T14:17:01.155Z,1.80
2023-04-13T14:19:28.961Z,2.38
2023-04-13T14:21:57.411Z,2.92
2023-04-13T14:24:26.494Z,2.22
2023-04-13T14:26:55.982Z,1.73
2023-04-13T14:29:23.866Z,1.83
2023-04-13T14:31:52.566Z,2.13
2023-04-13T14:34:20.615Z,2.10
2023-04-13T14:36:51.141Z,2.22
2023-04-13T14:39:21.024Z,1.90
2023-04-13T14:41:49.189Z,1.77
2023-04-13T14:44:18.425Z,2.80
2023-04-13T14:46:46.813Z,2.17
2023-04-13T14:49:17.800Z,2.10
2023-04-13T14:51:45.749Z,3.00
2023-04-13T14:54:14.015Z,2.45
2023-04-13T14:56:41.768Z,1.80
2023-04-13T14:59:09.821Z,2.00
2023-04-13T15:01:39.975Z,2.38
2023-04-13T15:04:08.221Z,2.38
2023-04-13T15:06:37.111Z,2.28
2023-04-13T15:09:06.573Z,1.80
2023-04-13T15:11:34.601Z,1.80
2023-04-13T15:14:02.584Z,1.63
2023-04-13T15:16:30.718Z,2.00
2023-04-13T15:19:00.709Z,1.52
2023-04-13T15:21:28.854Z,1.92
2023-04-13T15:23:56.824Z,1.65
2023-04-13T15:26:25.045Z,1.70
2023-04-13T15:28:52.857Z,1.50
2023-04-13T15:31:22.848Z,1.98
2023-04-13T15:33:51.774Z,1.70
2023-04-13T15:36:21.392Z,2.25
2023-04-13T15:38:49.453Z,2.20
2023-04-13T15:41:20.064Z,1.67
2023-04-13T15:43:48.187Z,2.42
2023-04-13T15:46:17.746Z,2.05
2023-04-13T15:48:46.744Z,2.00
2023-04-13T15:51:14.532Z,2.20
2023-04-13T15:53:43.843Z,2.17
2023-04-13T15:56:11.870Z,1.80
2023-04-13T15:58:40.054Z,1.92
2023-04-13T16:01:10.117Z,2.13
2023-04-13T16:03:39.453Z,1.90
2023-04-13T16:06:08.682Z,1.40
2023-04-13T16:08:37.365Z,1.98
2023-04-13T16:11:07.830Z,2.30
2023-04-13T16:13:48.618Z,1.98
2023-04-13T16:16:18.601Z,2.22
2023-04-13T16:18:46.506Z,2.35
2023-04-13T16:21:19.106Z,2.90
2023-04-13T16:23:47.541Z,2.63
2023-04-13T16:26:16.767Z,2.53
2023-04-13T16:28:44.478Z,2.80
2023-04-13T16:31:12.500Z,1.95
2023-04-13T16:33:41.438Z,2.42
2023-04-13T16:36:10.324Z,2.38
2023-04-13T16:38:40.309Z,2.47
2023-04-13T16:41:08.236Z,2.38
2023-04-13T16:43:37.662Z,2.00
2023-04-13T16:46:06.600Z,2.28
2023-04-13T16:48:34.569Z,2.33
2023-04-13T16:51:03.632Z,2.65
2023-04-13T16:53:31.836Z,3.20
2023-04-13T16:56:00.008Z,2.30
2023-04-13T16:58:27.875Z,2.78
2023-04-13T17:00:57.509Z,2.65
2023-04-13T17:03:26.338Z,2.15
2023-04-13T17:05:55.635Z,2.05
2023-04-13T17:08:23.676Z,2.50
2023-04-13T17:10:52.557Z,3.60
2023-04-13T17:13:20.807Z,2.17
2023-04-13T17:15:49.201Z,2.55
2023-04-13T17:18:18.481Z,2.38
2023-04-13T17:20:54.948Z,2.58
2023-04-13T17:23:23.622Z,2.28
2023-04-13T17:25:54.280Z,2.28
2023-04-13T17:28:23.600Z,2.55
2023-04-13T17:30:59.364Z,2.78
2023-04-13T17:33:31.505Z,2.10
2023-04-13T17:36:02.417Z,2.90
2023-04-13T17:38:30.553Z,2.10
2023-04-13T17:40:58.673Z,2.28
2023-04-13T17:43:26.647Z,2.40
2023-04-13T17:45:54.623Z,2.47
2023-04-13T17:48:22.439Z,2.70
2023-04-13T17:50:52.337Z,2.92
2023-04-13T17:53:20.325Z,2.20
2023-04-13T17:55:48.510Z,2.65
2023-04-13T17:58:16.729Z,2.10
2023-04-13T18:00:44.897Z,2.28
2023-04-13T18:03:14.118Z,2.50
2023-04-13T18:05:45.457Z,2.30
2023-04-13T18:08:14.790Z,2.65
2023-04-13T18:10:43.196Z,3.10
2023-04-13T18:13:11.280Z,2.53
2023-04-13T18:15:39.382Z,3.15
2023-04-13T18:18:07.723Z,2.20
2023-04-13T18:20:36.090Z,2.60
2023-04-13T18:23:04.653Z,2.28
2023-04-13T18:25:33.995Z,2.67
2023-04-13T18:28:01.749Z,3.67
2023-04-13T18:30:29.590Z,3.65
2023-04-13T18:32:57.787Z,3.40
2023-04-13T18:35:26.455Z,2.92
2023-04-13T18:37:54.523Z,3.15
2023-04-13T18:40:22.545Z,2.83
2023-04-13T18:42:51.741Z,3.67
2023-04-13T18:45:19.991Z,2.80
2023-04-13T18:47:48.129Z,2.38
2023-04-13T18:50:16.503Z,2.67
2023-04-13T18:52:44.454Z,3.33
2023-04-13T18:55:12.575Z,2.67
2023-04-13T18:57:41.793Z,2.60
2023-04-13T19:00:13.507Z,3.28
2023-04-13T19:02:42.374Z,3.58
2023-04-13T19:05:13.383Z,2.92
2023-04-13T19:07:42.345Z,2.67
2023-04-13T19:10:11.228Z,2.83
2023-04-13T19:12:39.242Z,1.98
2023-04-13T19:15:08.131Z,3.17
2023-04-13T19:17:37.939Z,3.10
2023-04-13T19:20:10.417Z,3.33
2023-04-13T19:22:39.578Z,2.42
2023-04-13T19:25:14.280Z,2.75
2023-04-13T19:27:44.544Z,2.85
2023-04-13T19:30:14.574Z,2.65
2023-04-13T19:32:46.837Z,2.85
2023-04-13T19:35:16.739Z,2.67
2023-04-13T19:37:45.627Z,3.17
2023-04-13T19:40:15.353Z,2.90
2023-04-13T19:42:45.769Z,2.22
2023-04-13T19:45:15.854Z,3.67
2023-04-13T19:47:47.550Z,2.97
2023-04-13T19:50:16.689Z,2.38
2023-04-13T19:52:47.185Z,3.15
2023-04-13T19:55:16.447Z,2.95
2023-04-13T19:57:44.631Z,2.47
2023-04-13T20:00:22.407Z,3.25
2023-04-13T20:02:53.016Z,3.20
2023-04-13T20:05:22.706Z,2.78
2023-04-13T20:07:50.723Z,2.88
2023-04-13T20:10:19.544Z,2.33
2023-04-13T20:12:47.910Z,2.85
2023-04-13T20:15:16.289Z,2.53
2023-04-13T20:17:44.732Z,3.35
2023-04-13T20:20:14.529Z,2.85
2023-04-13T20:22:43.613Z,2.53
2023-04-13T20:25:11.708Z,2.63
2023-04-13T20:27:41.736Z,3.35
2023-04-13T20:30:11.088Z,2.35
2023-04-13T20:32:39.679Z,2.55
2023-04-13T20:35:09.581Z,2.38
2023-04-13T20:37:39.153Z,2.33
2023-04-13T20:40:10.903Z,3.40
2023-04-13T20:42:41.742Z,2.80
2023-04-13T20:45:10.982Z,2.45
2023-04-13T20:47:42.335Z,3.30
2023-04-13T20:50:11.183Z,2.88
2023-04-13T20:52:42.693Z,2.85
2023-04-13T20:55:12.064Z,3.10
2023-04-13T20:57:42.151Z,3.17
2023-04-13T21:00:15.324Z,2.88
2023-04-13T21:05:12.624Z,2.50
2023-04-13T21:07:42.081Z,2.47
2023-04-13T21:10:12.123Z,2.25
2023-04-13T21:12:39.885Z,2.40
2023-04-13T21:15:09.426Z,2.85
2023-04-13T21:17:37.477Z,2.15
2023-04-13T21:20:08.699Z,2.92
2023-04-13T21:22:36.711Z,2.75
2023-04-13T21:25:07.032Z,1.90
2023-04-13T21:27:34.914Z,3.15
2023-04-13T21:30:03.352Z,3.50
2023-04-13T21:32:31.243Z,2.65
2023-04-13T21:35:00.450Z,2.67
2023-04-13T21:37:29.659Z,2.78
2023-04-13T21:39:57.796Z,2.50
2023-04-13T21:42:27.254Z,2.28
2023-04-13T21:44:56.849Z,2.45
2023-04-13T21:47:25.314Z,2.72
2023-04-13T21:49:53.292Z,2.55
2023-04-13T21:52:21.297Z,3.67
2023-04-13T21:54:51.020Z,2.28
2023-04-13T21:57:20.068Z,2.42
2023-04-13T21:59:49.657Z,3.80
2023-04-13T22:02:17.916Z,2.78
2023-04-13T22:04:45.895Z,3.17
2023-04-13T22:07:15.876Z,3.53
2023-04-13T22:09:43.717Z,3.75
2023-04-13T22:12:12.049Z,3.13
2023-04-13T22:14:40.489Z,3.08
2023-04-13T22:17:10.300Z,2.97
2023-04-13T22:19:38.214Z,2.55
2023-04-13T22:22:05.999Z,2.85
2023-04-13T22:24:33.950Z,2.38
2023-04-13T22:27:03.664Z,2.70
2023-04-13T22:29:32.014Z,3.13
2023-04-13T22:31:59.925Z,2.65
2023-04-13T22:34:29.116Z,2.47
2023-04-13T22:36:58.737Z,3.53
2023-04-13T22:39:26.707Z,1.95
2023-04-13T22:41:54.508Z,3.10
2023-04-13T22:44:22.520Z,2.60
2023-04-13T22:46:50.397Z,2.95
2023-04-13T22:49:18.146Z,2.63
2023-04-13T22:51:47.493Z,2.65
2023-04-13T22:54:15.533Z,2.65
2023-04-13T22:56:43.312Z,3.28
2023-04-13T22:59:11.049Z,2.70
2023-04-13T23:01:39.293Z,2.53
2023-04-13T23:04:07.160Z,2.72
2023-04-13T23:06:36.710Z,3.00
2023-04-13T23:09:06.295Z,3.13
2023-04-13T23:11:34.035Z,2.30
2023-04-13T23:14:02.068Z,2.38
2023-04-13T23:16:29.875Z,2.95
2023-04-13T23:18:58.265Z,2.90
2023-04-13T23:21:29.650Z,2.85
2023-04-13T23:23:58.135Z,2.53
2023-04-13T23:26:27.589Z,3.08
2023-04-13T23:28:56.010Z,2.67
2023-04-13T23:31:23.901Z,2.60
2023-04-13T23:33:53.440Z,3.83
2023-04-13T23:36:22.230Z,2.53
2023-04-13T23:38:51.056Z,2.83
2023-04-13T23:41:19.044Z,2.70
2023-04-13T23:43:48.331Z,2.35
2023-04-13T23:46:17.186Z,2.78
2023-04-13T23:48:45.165Z,2.78
2023-04-13T23:51:12.992Z,2.70
2023-04-13T23:53:41.307Z,2.63
2023-04-13T23:56:09.251Z,3.15
2023-04-13T23:58:37.048Z,2.65
